Young America, Minnesota
Current Conditions -  °F | °C
As of 3:54 AM on Sunday 21 Dec 2014 (Local Time) from KGYL Reporting Station
Haze Haze  
Wind Chill: 26°   Ceiling: 700
Heat Index: 33°   Visibility: 5mi
Dew Point: 32°   Wind: 8mph
Humidity: 96%   Direction: 150°SSE
Pressure: 29.93"   Gusts: NA
Location:  44.78°N, 93.92°W
Report Text: KGYL 210954Z AUTO 15007KT 5SM BR OVC007 01/00 A2993 RMK AO2 T00060001
Loading
Personal Weather Stations






























Interactive Weather Map New forecast layout! Learn more

10-Day Weather Forecast

Advertisements
Track Severe Weather on mobile